createdAt,value
2018-03-21T00:00:20.001Z,5.60
2018-03-21T00:02:46.272Z,2.30
2018-03-21T00:05:12.866Z,3.80
2018-03-21T00:07:41.217Z,3.95
2018-03-21T00:10:08.299Z,3.33
2018-03-21T00:12:35.362Z,3.53
2018-03-21T00:15:01.734Z,6.78
2018-03-21T00:17:28.028Z,2.20
2018-03-21T00:19:54.299Z,3.17
2018-03-21T00:22:20.630Z,2.40
2018-03-21T00:24:50.460Z,3.15
2018-03-21T00:27:17.517Z,6.87
2018-03-21T00:29:43.881Z,2.70
2018-03-21T00:32:10.212Z,5.55
2018-03-21T00:34:36.649Z,3.90
2018-03-21T00:37:03.017Z,3.97
2018-03-21T00:39:29.360Z,4.50
2018-03-21T00:41:56.419Z,3.60
2018-03-21T00:44:23.484Z,4.32
2018-03-21T00:46:50.026Z,2.30
2018-03-21T00:49:16.382Z,2.35
2018-03-21T00:51:43.775Z,6.68
2018-03-21T00:54:10.092Z,6.00
2018-03-21T00:56:36.412Z,4.15
2018-03-21T00:59:02.776Z,2.30
2018-03-21T01:01:29.826Z,4.70
2018-03-21T01:03:56.910Z,5.18
2018-03-21T01:06:23.248Z,7.90
2018-03-21T01:08:49.570Z,5.65
2018-03-21T01:11:15.940Z,6.25
2018-03-21T01:13:42.256Z,3.47
2018-03-21T01:16:08.783Z,3.70
2018-03-21T01:18:35.052Z,2.50
2018-03-21T01:21:02.168Z,3.05
2018-03-21T01:23:28.495Z,3.28
2018-03-21T01:25:55.552Z,3.50
2018-03-21T01:28:21.864Z,3.50
2018-03-21T01:30:48.244Z,6.07
2018-03-21T01:33:15.272Z,3.83
2018-03-21T01:35:41.663Z,5.57
2018-03-21T01:38:08.056Z,7.90
2018-03-21T01:40:35.165Z,4.87
2018-03-21T01:43:01.525Z,4.75
2018-03-21T01:45:27.840Z,4.65
2018-03-21T01:47:54.179Z,5.95
2018-03-21T01:50:20.527Z,7.22
2018-03-21T01:52:59.815Z,4.03
2018-03-21T01:55:26.115Z,4.47
2018-03-21T01:57:52.450Z,6.75
2018-03-21T02:00:18.804Z,5.75
2018-03-21T02:02:45.135Z,4.22
2018-03-21T02:05:11.536Z,3.12
2018-03-21T02:07:37.824Z,6.28
2018-03-21T02:10:04.218Z,4.62
2018-03-21T02:12:30.495Z,5.80
2018-03-21T02:14:56.770Z,5.82
2018-03-21T02:17:23.113Z,5.18
2018-03-21T02:19:49.476Z,11.07
2018-03-21T02:22:15.789Z,5.37
2018-03-21T02:24:42.152Z,7.28
2018-03-21T02:27:08.474Z,6.70
2018-03-21T02:29:34.732Z,7.80
2018-03-21T02:32:01.784Z,5.70
2018-03-21T02:34:28.140Z,3.92
2018-03-21T02:36:54.472Z,6.00
2018-03-21T02:39:20.736Z,4.15
2018-03-21T02:41:47.060Z,3.90
2018-03-21T02:44:13.428Z,6.85
2018-03-21T02:46:40.456Z,7.22
2018-03-21T02:49:06.731Z,4.72
2018-03-21T02:51:33.073Z,2.80
2018-03-21T02:53:59.409Z,3.65
2018-03-21T02:56:25.809Z,6.22
2018-03-21T02:58:52.809Z,4.45
2018-03-21T03:01:19.187Z,3.70
2018-03-21T03:03:45.895Z,4.68
2018-03-21T03:06:12.200Z,4.47
2018-03-21T03:08:39.207Z,5.53
2018-03-21T03:11:05.578Z,5.10
2018-03-21T03:13:32.620Z,5.70
2018-03-21T03:15:59.013Z,3.70
2018-03-21T03:18:25.323Z,5.70
2018-03-21T03:20:52.380Z,6.20
2018-03-21T03:23:19.446Z,6.78
2018-03-21T03:25:45.800Z,5.20
2018-03-21T03:28:12.113Z,4.53
2018-03-21T03:30:38.380Z,6.85
2018-03-21T03:33:04.703Z,7.15
2018-03-21T03:35:31.792Z,4.65
2018-03-21T03:37:58.830Z,6.25
2018-03-21T03:40:25.204Z,5.20
2018-03-21T03:42:52.239Z,6.85
2018-03-21T03:45:18.596Z,4.60
2018-03-21T03:47:44.927Z,8.45
2018-03-21T03:50:11.298Z,5.35
2018-03-21T03:52:37.608Z,5.45
2018-03-21T03:55:03.880Z,3.47
2018-03-21T03:57:30.914Z,10.45
2018-03-21T03:59:57.999Z,2.62
2018-03-21T04:02:24.280Z,3.10
2018-03-21T04:04:50.648Z,3.70
2018-03-21T04:07:16.964Z,4.65
2018-03-21T04:09:44.025Z,6.53
2018-03-21T04:12:10.340Z,2.67
2018-03-21T04:14:36.672Z,3.97
2018-03-21T04:17:03.716Z,3.78
2018-03-21T04:19:30.772Z,2.90
2018-03-21T04:21:57.093Z,4.37
2018-03-21T04:24:24.155Z,3.95
2018-03-21T04:26:50.468Z,3.80
2018-03-21T04:29:17.527Z,6.80
2018-03-21T04:31:44.557Z,4.10
2018-03-21T04:34:11.622Z,3.17
2018-03-21T04:36:37.936Z,3.75
2018-03-21T04:39:05.020Z,5.68
2018-03-21T04:41:31.339Z,3.15
2018-03-21T04:43:57.676Z,3.80
2018-03-21T04:46:23.994Z,3.67
2018-03-21T04:48:51.059Z,3.22
2018-03-21T04:51:17.398Z,4.93
2018-03-21T04:53:43.711Z,4.03
2018-03-21T04:56:10.739Z,4.32
2018-03-21T04:58:37.812Z,4.40
2018-03-21T05:01:04.117Z,5.65
2018-03-21T05:03:31.169Z,4.25
2018-03-21T05:05:58.256Z,4.95
2018-03-21T05:08:24.564Z,4.28
2018-03-21T05:10:51.017Z,4.35
2018-03-21T05:13:20.206Z,6.15
2018-03-21T05:15:46.564Z,7.57
2018-03-21T05:18:12.960Z,4.18
2018-03-21T05:20:39.261Z,11.57
2018-03-21T05:23:06.430Z,4.30
2018-03-21T05:25:32.754Z,6.87
2018-03-21T05:27:59.771Z,4.10
2018-03-21T05:30:26.139Z,5.93
2018-03-21T05:32:52.440Z,9.77
2018-03-21T05:35:18.787Z,4.35
2018-03-21T05:37:45.840Z,5.62
2018-03-21T05:40:12.999Z,7.80
2018-03-21T05:42:39.300Z,6.12
2018-03-21T05:45:05.588Z,4.05
2018-03-21T05:47:31.891Z,5.90
2018-03-21T05:49:58.160Z,4.57
2018-03-21T05:52:26.256Z,5.62
2018-03-21T05:54:52.601Z,6.15
2018-03-21T05:57:19.628Z,10.23
2018-03-21T05:59:45.904Z,11.43
2018-03-21T06:02:12.225Z,10.32
2018-03-21T06:04:38.588Z,8.02
2018-03-21T06:07:04.912Z,7.93
2018-03-21T06:09:31.220Z,8.05
2018-03-21T06:11:57.464Z,14.98
2018-03-21T06:14:23.764Z,6.37
2018-03-21T06:16:50.736Z,11.00
2018-03-21T06:19:17.034Z,10.23
2018-03-21T06:21:44.061Z,10.52
2018-03-21T06:24:10.349Z,11.98
2018-03-21T06:26:36.636Z,12.95
2018-03-21T06:29:03.613Z,7.32
2018-03-21T06:31:29.883Z,12.63
2018-03-21T06:33:56.123Z,8.20
2018-03-21T06:36:22.400Z,11.68
2018-03-21T06:38:48.643Z,7.70
2018-03-21T06:41:14.904Z,8.63
2018-03-21T06:43:41.141Z,9.30
2018-03-21T06:46:07.399Z,10.30
2018-03-21T06:48:34.392Z,7.85
2018-03-21T06:51:00.639Z,9.50
2018-03-21T06:53:26.884Z,9.90
2018-03-21T06:55:53.181Z,11.98
2018-03-21T06:58:20.456Z,10.35
2018-03-21T07:00:46.809Z,9.48
2018-03-21T07:03:14.371Z,10.10
2018-03-21T07:05:40.971Z,11.80
2018-03-21T07:08:07.216Z,10.95
2018-03-21T07:10:33.487Z,12.75
2018-03-21T07:12:59.815Z,12.30
2018-03-21T07:15:39.061Z,10.07
2018-03-21T07:18:05.324Z,8.02
2018-03-21T07:20:31.591Z,8.35
2018-03-21T07:22:58.594Z,11.93
2018-03-21T07:25:24.864Z,8.70
2018-03-21T07:27:51.904Z,6.20
2018-03-21T07:30:18.888Z,9.90
2018-03-21T07:32:45.204Z,8.45
2018-03-21T07:35:11.468Z,10.13
2018-03-21T07:37:37.725Z,8.18
2018-03-21T07:40:04.865Z,10.40
2018-03-21T07:42:31.076Z,11.05
2018-03-21T07:44:57.364Z,13.23
2018-03-21T07:47:23.637Z,8.20
2018-03-21T07:49:49.895Z,13.82
2018-03-21T07:52:16.863Z,8.50
2018-03-21T07:54:43.128Z,6.72
2018-03-21T07:57:09.377Z,10.20
2018-03-21T07:59:35.636Z,5.82
2018-03-21T08:02:02.644Z,8.55
2018-03-21T08:04:31.827Z,7.90
2018-03-21T08:06:58.137Z,3.03
2018-03-21T08:09:25.496Z,13.13
2018-03-21T08:11:51.781Z,10.82
2018-03-21T08:14:18.044Z,10.93
2018-03-21T08:16:44.302Z,8.18
2018-03-21T08:19:10.576Z,4.50
2018-03-21T08:21:37.617Z,12.52
2018-03-21T08:24:03.897Z,12.07
2018-03-21T08:26:30.140Z,7.28
2018-03-21T08:28:56.456Z,7.53
2018-03-21T08:31:22.688Z,6.43
2018-03-21T08:33:48.952Z,11.23
2018-03-21T08:36:15.230Z,9.10
2018-03-21T08:38:41.504Z,8.50
2018-03-21T08:41:07.772Z,8.95
2018-03-21T08:43:34.091Z,6.75
2018-03-21T08:46:00.296Z,14.27
2018-03-21T08:48:26.568Z,5.20
2018-03-21T08:50:53.320Z,7.37
2018-03-21T08:53:19.592Z,13.57
2018-03-21T08:55:45.824Z,9.57
2018-03-21T08:58:12.088Z,8.57
2018-03-21T09:00:38.332Z,8.13
2018-03-21T09:03:04.591Z,8.60
2018-03-21T09:05:30.828Z,10.37
2018-03-21T09:07:57.092Z,6.80
2018-03-21T09:10:24.069Z,6.23
2018-03-21T09:12:50.324Z,5.97
2018-03-21T09:15:16.576Z,8.17
2018-03-21T09:17:42.812Z,5.23
2018-03-21T09:20:09.071Z,5.77
2018-03-21T09:22:36.428Z,11.33
2018-03-21T09:25:02.730Z,6.73
2018-03-21T09:27:29.721Z,7.40
2018-03-21T09:29:56.748Z,7.27
2018-03-21T09:32:22.987Z,4.13
2018-03-21T09:34:49.272Z,9.33
2018-03-21T09:37:15.516Z,5.23
2018-03-21T09:39:42.558Z,5.87
2018-03-21T09:42:10.646Z,4.77
2018-03-21T09:44:37.644Z,5.97
2018-03-21T09:47:03.904Z,4.40
2018-03-21T09:49:30.916Z,6.73
2018-03-21T09:51:57.165Z,10.57
2018-03-21T09:54:23.429Z,5.43
2018-03-21T09:56:49.667Z,5.30
2018-03-21T09:59:15.940Z,3.67
2018-03-21T10:01:42.193Z,2.10
2018-03-21T10:04:08.459Z,3.10
2018-03-21T10:06:34.688Z,11.20
2018-03-21T10:09:15.890Z,2.67
2018-03-21T10:11:42.143Z,3.03
2018-03-21T10:14:08.419Z,7.03
2018-03-21T10:16:34.688Z,8.73
2018-03-21T10:19:00.947Z,2.13
2018-03-21T10:21:27.952Z,9.80
2018-03-21T10:23:54.268Z,1.53
2018-03-21T10:26:20.513Z,7.63
2018-03-21T10:28:46.772Z,6.67
2018-03-21T10:31:13.303Z,6.00
2018-03-21T10:33:39.593Z,3.13
2018-03-21T10:36:05.888Z,3.77
2018-03-21T10:38:32.919Z,8.00
2018-03-21T10:40:59.164Z,2.03
2018-03-21T10:43:26.163Z,6.13
2018-03-21T10:45:52.436Z,3.73
2018-03-21T10:48:19.456Z,5.23
2018-03-21T10:50:45.721Z,5.43
2018-03-21T10:53:12.720Z,5.37
2018-03-21T10:55:38.968Z,2.87
2018-03-21T10:58:05.240Z,2.10
2018-03-21T11:00:31.476Z,1.83
2018-03-21T11:03:01.579Z,2.10
2018-03-21T11:05:27.896Z,5.77
2018-03-21T11:07:54.911Z,3.63
2018-03-21T11:10:21.161Z,1.57
2018-03-21T11:12:48.160Z,5.00
2018-03-21T11:15:14.411Z,3.20
2018-03-21T11:17:40.652Z,5.47
2018-03-21T11:20:06.918Z,1.50
2018-03-21T11:22:33.204Z,2.70
2018-03-21T11:24:59.439Z,2.90
2018-03-21T11:27:25.685Z,2.43
2018-03-21T11:29:52.692Z,7.77
2018-03-21T11:32:18.931Z,4.00
2018-03-21T11:34:45.215Z,1.93
2018-03-21T11:37:11.708Z,3.20
2018-03-21T11:39:37.972Z,2.60
2018-03-21T11:42:04.218Z,2.50
2018-03-21T11:44:30.492Z,2.43
2018-03-21T11:46:56.736Z,1.47
2018-03-21T11:49:23.744Z,2.20
2018-03-21T11:51:49.981Z,1.80
2018-03-21T11:54:16.265Z,4.00
2018-03-21T11:56:42.505Z,3.97
2018-03-21T11:59:08.764Z,4.60
2018-03-21T12:01:35.031Z,5.37
2018-03-21T12:04:02.033Z,2.50
2018-03-21T12:06:28.274Z,3.67
2018-03-21T12:08:54.537Z,3.67
2018-03-21T12:11:22.588Z,2.33
2018-03-21T12:13:48.836Z,3.23
2018-03-21T12:16:15.872Z,1.90
2018-03-21T12:18:42.152Z,7.97
2018-03-21T12:21:08.404Z,3.00
2018-03-21T12:23:34.688Z,2.10
2018-03-21T12:26:00.931Z,5.17
2018-03-21T12:28:27.204Z,4.90
2018-03-21T12:30:53.466Z,2.20
2018-03-21T12:33:20.525Z,2.63
2018-03-21T12:35:46.811Z,3.60
2018-03-21T12:38:13.133Z,2.07
2018-03-21T12:40:39.437Z,2.37
2018-03-21T12:43:05.653Z,3.50
2018-03-21T12:45:31.892Z,2.80
2018-03-21T12:47:58.152Z,3.50
2018-03-21T12:50:24.395Z,9.73
2018-03-21T12:52:50.685Z,10.17
2018-03-21T12:55:16.925Z,3.83
2018-03-21T12:57:43.584Z,4.10
2018-03-21T13:00:09.820Z,3.00
2018-03-21T13:02:36.103Z,8.60
2018-03-21T13:05:02.398Z,3.23
2018-03-21T13:07:29.405Z,3.07
2018-03-21T13:09:55.648Z,8.67
2018-03-21T13:12:21.887Z,9.90
2018-03-21T13:14:48.960Z,10.23
2018-03-21T13:17:15.215Z,8.60
2018-03-21T13:19:41.503Z,10.10
2018-03-21T13:22:07.752Z,8.50
2018-03-21T13:24:33.983Z,12.77
2018-03-21T13:27:00.248Z,12.30
2018-03-21T13:29:26.484Z,13.43
2018-03-21T13:31:52.739Z,9.90
2018-03-21T13:34:19.775Z,7.47
2018-03-21T13:36:46.016Z,11.87
2018-03-21T13:39:13.022Z,16.70
2018-03-21T13:41:39.284Z,11.60
2018-03-21T13:44:05.547Z,15.00
2018-03-21T13:46:31.807Z,7.60
2018-03-21T13:48:58.816Z,14.40
2018-03-21T13:51:25.072Z,12.77
2018-03-21T13:53:51.357Z,14.67
2018-03-21T13:56:18.340Z,10.03
2018-03-21T15:20:40.912Z,11.70
2018-03-21T15:23:07.224Z,10.00
2018-03-21T15:25:36.328Z,7.70
2018-03-21T15:28:02.640Z,4.60
2018-03-21T15:30:29.705Z,10.40
2018-03-21T15:32:56.727Z,10.50
2018-03-21T15:35:23.121Z,13.90
2018-03-21T15:37:49.389Z,18.23
2018-03-21T15:40:15.774Z,12.00
2018-03-21T15:42:42.495Z,10.27
2018-03-21T15:45:23.736Z,9.80
2018-03-21T15:47:50.092Z,6.23
2018-03-21T15:50:17.136Z,9.77
2018-03-21T15:52:44.180Z,8.73
2018-03-21T15:55:11.242Z,8.50
2018-03-21T15:57:38.327Z,8.57
2018-03-21T16:00:04.575Z,11.50
2018-03-21T16:02:30.955Z,14.10
2018-03-21T16:04:57.272Z,12.53
2018-03-21T16:07:24.332Z,9.10
2018-03-21T16:09:50.642Z,6.93
2018-03-21T16:12:17.819Z,11.33
2018-03-21T16:14:44.088Z,8.60
2018-03-21T16:17:10.321Z,4.10
2018-03-21T16:19:36.580Z,7.20
2018-03-21T16:22:03.555Z,10.50
2018-03-21T16:24:29.825Z,9.33
2018-03-21T16:26:56.102Z,7.53
2018-03-21T16:29:22.361Z,6.50
2018-03-21T16:31:48.627Z,8.57
2018-03-21T16:34:14.984Z,16.90
2018-03-21T16:36:42.020Z,7.67
2018-03-21T16:39:08.284Z,11.60
2018-03-21T16:41:34.527Z,7.97
2018-03-21T16:44:00.840Z,9.93
2018-03-21T16:46:27.083Z,12.53
2018-03-21T16:48:53.344Z,9.60
2018-03-21T16:51:19.593Z,9.60
2018-03-21T16:53:45.936Z,17.43
2018-03-21T16:56:12.933Z,8.63
2018-03-21T16:58:39.965Z,5.70
2018-03-21T17:01:06.227Z,8.40
2018-03-21T17:03:33.469Z,12.97
2018-03-21T17:05:59.746Z,9.57
2018-03-21T17:08:26.735Z,4.00
2018-03-21T17:10:53.045Z,7.70
2018-03-21T17:13:19.292Z,7.50
2018-03-21T17:15:45.573Z,13.07
2018-03-21T17:18:11.877Z,9.67
2018-03-21T17:20:39.172Z,17.37
2018-03-21T17:23:05.422Z,10.90
2018-03-21T17:25:31.700Z,9.77
2018-03-21T17:27:58.717Z,7.87
2018-03-21T17:30:25.076Z,12.50
2018-03-21T17:32:51.304Z,10.47
2018-03-21T17:35:17.628Z,7.43
2018-03-21T17:37:43.896Z,10.97
2018-03-21T17:40:10.192Z,11.07
2018-03-21T17:42:37.176Z,7.30
2018-03-21T17:45:03.512Z,14.77
2018-03-21T17:47:29.778Z,9.73
2018-03-21T17:49:56.332Z,9.93
2018-03-21T17:52:22.577Z,16.13
2018-03-21T17:54:49.577Z,11.23
2018-03-21T17:57:15.808Z,15.50
2018-03-21T17:59:42.095Z,11.77
2018-03-21T18:02:08.759Z,13.10
2018-03-21T18:04:35.163Z,10.53
2018-03-21T18:07:01.497Z,8.77
2018-03-21T18:09:27.751Z,16.77
2018-03-21T18:11:54.025Z,18.13
2018-03-21T18:14:20.346Z,9.57
2018-03-21T18:16:46.712Z,11.57
2018-03-21T18:19:13.004Z,14.63
2018-03-21T18:21:39.264Z,12.83
2018-03-21T18:24:06.253Z,12.07
2018-03-21T18:26:32.504Z,7.93
2018-03-21T18:28:58.765Z,10.20
2018-03-21T18:31:29.091Z,7.70
2018-03-21T18:33:55.958Z,8.50
2018-03-21T18:36:23.682Z,9.43
2018-03-21T18:38:50.545Z,10.83
2018-03-21T18:41:17.430Z,15.27
2018-03-21T18:43:45.210Z,11.00
2018-03-21T18:46:12.222Z,9.43
2018-03-21T18:48:39.107Z,10.80
2018-03-21T18:51:05.963Z,8.97
2018-03-21T18:53:33.638Z,10.47
2018-03-21T18:56:02.214Z,10.20
2018-03-21T18:58:29.132Z,11.57
2018-03-21T19:00:56.038Z,17.30
2018-03-21T19:03:24.890Z,15.97
2018-03-21T19:05:52.618Z,11.97
2018-03-21T19:08:19.164Z,15.53
2018-03-21T19:10:47.430Z,18.20
2018-03-21T19:13:20.146Z,13.30
2018-03-21T19:15:43.170Z,14.20
2018-03-21T19:18:10.839Z,14.80
2018-03-21T19:20:37.250Z,12.63
2018-03-21T19:23:03.524Z,16.90
2018-03-21T19:25:29.796Z,13.50
2018-03-21T19:27:56.053Z,14.30
2018-03-21T19:30:22.331Z,15.20
2018-03-21T19:32:49.312Z,19.97
2018-03-21T19:35:15.600Z,14.30
2018-03-21T19:37:42.596Z,13.67
2018-03-21T19:40:09.889Z,14.73
2018-03-21T19:42:36.120Z,13.43
2018-03-21T19:45:03.144Z,14.17
2018-03-21T19:47:29.393Z,10.10
2018-03-21T19:49:55.656Z,14.40
2018-03-21T19:52:22.668Z,18.30
2018-03-21T19:54:49.740Z,14.30
2018-03-21T19:57:15.994Z,9.50
2018-03-21T19:59:42.332Z,12.10
2018-03-21T20:02:08.580Z,15.03
2018-03-21T20:04:34.865Z,19.03
2018-03-21T20:07:01.224Z,12.90
2018-03-21T20:09:28.234Z,12.40
2018-03-21T20:11:54.489Z,10.70
2018-03-21T20:14:20.774Z,12.00
2018-03-21T20:16:47.780Z,14.00
2018-03-21T20:19:15.117Z,10.77
2018-03-21T20:21:41.352Z,16.00
2018-03-21T20:24:07.676Z,20.37
2018-03-21T20:26:33.995Z,8.93
2018-03-21T20:29:00.364Z,11.20
2018-03-21T20:31:26.692Z,7.93
2018-03-21T20:33:53.065Z,19.17
2018-03-21T20:36:20.100Z,13.87
2018-03-21T20:38:46.380Z,18.20
2018-03-21T20:41:12.620Z,12.27
2018-03-21T20:43:38.864Z,17.90
2018-03-21T20:46:05.164Z,15.30
2018-03-21T20:48:31.424Z,16.10
2018-03-21T20:50:57.706Z,12.37
2018-03-21T20:53:23.963Z,16.70
2018-03-21T20:55:50.268Z,12.63
2018-03-21T20:58:16.508Z,12.33
2018-03-21T21:00:42.762Z,16.33
2018-03-21T21:03:09.025Z,18.40
2018-03-21T21:05:36.055Z,9.83
2018-03-21T21:08:02.385Z,11.20
2018-03-21T21:10:28.740Z,14.90
2018-03-21T21:12:55.779Z,14.20
2018-03-21T21:15:22.858Z,13.70
2018-03-21T21:17:49.197Z,11.90
2018-03-21T21:20:15.556Z,12.67
2018-03-21T21:22:41.868Z,10.37
2018-03-21T21:25:08.133Z,5.70
2018-03-21T21:27:34.460Z,14.73
2018-03-21T21:30:00.845Z,12.67
2018-03-21T21:32:27.157Z,11.27
2018-03-21T21:34:54.302Z,6.90
2018-03-21T21:37:21.417Z,14.07
2018-03-21T21:39:47.778Z,10.03
2018-03-21T21:42:14.776Z,9.30
2018-03-21T21:44:41.147Z,17.33
2018-03-21T21:47:07.469Z,18.77
2018-03-21T21:49:33.831Z,18.37
2018-03-21T21:52:00.144Z,11.80
2018-03-21T21:54:27.241Z,15.63
2018-03-21T21:56:53.711Z,13.43
2018-03-21T21:59:20.028Z,16.90
2018-03-21T22:01:47.068Z,18.23
2018-03-21T22:04:13.436Z,16.50
2018-03-21T22:06:40.788Z,15.90
2018-03-21T22:09:07.866Z,16.67
2018-03-21T22:11:34.198Z,16.37
2018-03-21T22:14:00.566Z,19.37
2018-03-21T22:16:26.892Z,15.87
2018-03-21T22:18:53.240Z,19.43
2018-03-21T22:21:19.552Z,16.23
2018-03-21T22:23:45.840Z,17.60
2018-03-21T22:26:12.170Z,14.97
2018-03-21T22:28:39.275Z,19.83
2018-03-21T22:31:05.559Z,19.00
2018-03-21T22:33:31.840Z,21.27
2018-03-21T22:35:58.218Z,24.40
2018-03-21T22:38:24.528Z,23.90
2018-03-21T22:40:51.562Z,22.70
2018-03-21T22:43:17.958Z,25.00
2018-03-21T22:45:44.358Z,23.77
2018-03-21T22:48:10.727Z,21.43
2018-03-21T22:50:37.039Z,30.00
2018-03-21T22:53:03.311Z,26.77
2018-03-21T22:55:29.662Z,31.53
2018-03-21T22:57:56.719Z,27.80
2018-03-21T23:00:24.080Z,28.97
2018-03-21T23:02:50.433Z,19.90
2018-03-21T23:05:16.784Z,35.50
2018-03-21T23:07:43.095Z,16.43
2018-03-21T23:10:09.476Z,28.50
2018-03-21T23:12:36.499Z,36.40
2018-03-21T23:15:04.520Z,30.07
2018-03-21T23:17:30.824Z,36.27
2018-03-21T23:19:58.240Z,21.93
2018-03-21T23:22:24.555Z,37.53
2018-03-21T23:24:50.971Z,36.20
2018-03-21T23:27:17.957Z,23.27
2018-03-21T23:29:44.447Z,31.50
2018-03-21T23:32:11.468Z,28.40
2018-03-21T23:34:38.543Z,34.43
2018-03-21T23:37:04.868Z,26.87
2018-03-21T23:39:32.269Z,37.23
2018-03-21T23:41:58.592Z,26.10
2018-03-21T23:44:24.961Z,25.07
2018-03-21T23:46:51.268Z,32.13
2018-03-21T23:49:36.024Z,36.60
2018-03-21T23:52:02.315Z,33.40
2018-03-21T23:54:28.662Z,40.63
2018-03-21T23:56:54.976Z,33.13
2018-03-21T23:59:21.257Z,40.90
